Latest Weather Observations for Nowra

IDN60901

Issued at 1:25 pm EST Friday 29 August 2014 (issued every 10 minutes, with the page automatically refreshed every 10 minutes)

About weather observations | Map of Canberra area stations | Latest observations for Canberra area | Other Formats
Station Details ID: 068072 Name: NOWRA RAN AIR STATION AWS Lat: -34.95 Lon: 150.54 Height: 109.0 m
Data from the previous 72 hours. | See also: Recent months at Nowra
Date/Time
EST
Tmp

°C
App
Tmp
°C
Dew
Point
°C
Rel
Hum
%
Delta-T

°C
Wind Press
QNH
hPa
Press
MSL
hPa
Rain
since
9 am
mm
Dir
 
Spd
km/h
Gust
km/h
Spd
kts
Gust
kts
29/01:10pm 13.0 7.4 10.0 82 1.5 S 30 41 16 22 1026.1 - 0.0
29/01:00pm 15.5 11.0 8.7 64 3.5 S 22 30 12 16 1025.8 - 0.0
29/12:30pm 15.3 11.8 10.9 75 2.3 SSW 20 26 11 14 1026.0 - 0.0
29/12:00pm 16.0 12.1 9.4 65 3.4 S 20 30 11 16 1026.2 1026.3 0.0
29/11:30am 15.2 11.3 9.3 68 3.0 S 20 28 11 15 1026.6 - 0.0
29/11:00am 15.3 10.8 10.1 71 2.7 S 24 32 13 17 1026.8 - 0.0
29/10:30am 13.8 10.7 10.4 80 1.8 S 17 22 9 12 1027.1 - 0.0
29/10:00am 13.8 9.0 9.0 73 2.4 S 24 33 13 18 1027.3 - 0.0
29/09:30am 15.0 11.1 9.6 70 2.8 SSW 20 26 11 14 1027.3 - 0.0
29/09:00am 13.7 9.7 9.2 74 2.3 SSW 20 28 11 15 1027.5 1027.6 1.6
29/08:30am 13.3 10.5 9.9 80 1.8 SSW 15 22 8 12 1027.5 - 1.6
29/08:00am - - - - - SW 13 19 7 10 - - 1.6
29/07:30am 12.0 10.2 10.9 93 0.6 WSW 11 15 6 8 1027.4 - 1.6
29/07:00am 10.5 8.2 10.3 99 0.1 WSW 13 13 7 7 1027.1 - 1.6
29/06:30am 9.6 7.4 9.5 99 0.0 WSW 11 13 6 7 1026.9 - 1.6
29/06:00am 10.1 7.7 9.9 99 0.1 WSW 13 15 7 8 1026.7 1026.8 1.4
29/05:30am 9.5 6.9 9.4 99 0.0 W 13 13 7 7 1026.6 - 1.4
29/05:00am 9.7 7.2 9.6 99 0.1 W 13 15 7 8 1026.5 - 1.4
29/04:30am 10.2 8.5 10.0 99 0.1 WSW 9 11 5 6 1026.5 - 1.4
29/04:00am 10.1 7.5 9.5 96 0.3 WSW 13 15 7 8 1026.5 - 0.6
29/03:30am 9.8 7.7 9.7 99 0.1 WSW 11 13 6 7 1026.5 - 0.6
29/03:01am 9.8 7.7 9.7 99 0.1 WSW 11 13 6 7 1026.7 - 0.6
29/03:00am 9.8 7.7 9.7 99 0.0 WSW 11 13 6 7 1026.7 1026.8 0.6
29/02:44am 9.1 8.9 9.0 99 0.0 CALM 0 0 0 0 1026.8 - 0.6
29/02:30am 8.9 7.3 8.8 99 0.0 SW 7 11 4 6 1027.1 - 0.4
29/02:00am 8.1 7.3 8.0 99 0.0 NW 2 9 1 5 1027.0 - 0.4
29/01:30am 8.9 6.5 8.8 99 0.0 W 11 11 6 6 1027.3 - 0.4
29/01:00am 8.9 6.5 8.8 99 0.0 W 11 13 6 7 1027.7 - 0.4
29/12:30am 8.9 6.1 8.6 98 0.1 W 13 13 7 7 1027.9 - 0.4
29/12:00am 9.3 6.8 8.4 94 0.4 WSW 11 13 6 7 1028.1 1028.2 0.4
 
Date/Time
EST
Tmp

°C
App
Tmp
°C
Dew
Point
°C
Rel
Hum
%
Delta-T

°C
Wind Press
QNH
hPa
Press
MSL
hPa
Rain
since
9 am
mm
Dir
 
Spd
km/h
Gust
km/h
Spd
kts
Gust
kts
28/11:30pm 9.9 8.0 9.0 94 0.4 SW 9 11 5 6 1028.2 - 0.4
28/11:00pm 9.9 7.7 9.3 96 0.3 WSW 11 13 6 7 1028.2 - 0.4
28/10:30pm 9.4 7.5 9.1 98 0.1 WSW 9 11 5 6 1028.3 - 0.4
28/10:00pm 9.2 6.8 8.7 97 0.2 SW 11 13 6 7 1028.5 - 0.4
28/09:30pm 8.9 6.4 8.0 94 0.4 WSW 11 13 6 7 1028.6 - 0.4
28/09:00pm 10.0 7.7 8.9 93 0.5 SW 11 13 6 7 1028.6 1028.7 0.4
28/08:30pm 10.8 8.3 9.7 93 0.6 SW 13 15 7 8 1028.5 - 0.4
28/08:00pm 11.3 8.6 10.4 94 0.5 SW 15 15 8 8 1028.5 - 0.4
28/07:30pm 11.5 9.4 11.0 97 0.3 SW 13 15 7 8 1028.4 - 0.4
28/07:00pm 11.1 8.8 10.5 96 0.3 SW 13 15 7 8 1028.2 - 0.4
28/06:30pm 10.9 8.4 9.8 93 0.6 SW 13 13 7 7 1028.0 - 0.4
28/06:00pm 11.7 9.6 9.8 88 1.0 SSW 11 13 6 7 1028.1 1028.2 0.4
28/05:30pm 13.3 11.3 10.3 82 1.6 S 11 15 6 8 1027.9 - 0.4
28/05:00pm 14.4 11.5 9.6 73 2.5 SSE 15 20 8 11 1027.7 - 0.4
28/04:30pm 14.9 11.9 9.3 69 2.9 S 15 20 8 11 1027.4 - 0.4
28/04:00pm 14.7 10.9 9.1 69 2.9 SSE 19 26 10 14 1027.1 - 0.4
28/03:30pm 15.9 12.2 10.0 68 3.1 SSE 20 28 11 15 1026.9 - 0.4
28/03:00pm 15.5 10.9 9.8 69 3.0 SSE 24 32 13 17 1026.9 1027.0 0.4
28/02:30pm 15.6 11.4 11.0 74 2.5 S 24 32 13 17 1027.0 - 0.4
28/02:00pm 14.9 12.1 11.5 80 1.8 S 17 22 9 12 1027.1 - 0.4
28/01:30pm 14.0 11.3 11.7 86 1.2 S 17 22 9 12 1027.2 - 0.4
28/01:00pm 13.4 9.3 11.3 87 1.1 S 24 32 13 17 1027.4 - 0.4
28/12:30pm 15.4 10.9 10.2 71 2.7 S 24 32 13 17 1027.3 - 0.0
28/12:00pm 15.8 12.5 10.8 72 2.7 S 19 28 10 15 1027.4 1027.5 0.0
28/11:30am 16.0 12.5 10.3 69 3.0 S 19 24 10 13 1027.9 - 0.0
28/11:00am 15.0 10.7 10.8 76 2.2 S 24 32 13 17 1028.2 - 0.0
28/10:30am 15.5 12.1 11.3 76 2.3 S 20 32 11 17 1028.4 - 0.0
28/10:00am 14.6 11.3 11.6 82 1.6 S 20 26 11 14 1028.6 - 0.0
28/09:30am 14.1 10.0 11.4 84 1.4 S 24 32 13 17 1028.5 - 0.0
28/09:00am 13.4 10.1 11.5 88 1.0 SSW 20 26 11 14 1028.4 1028.5 4.0
28/08:30am 12.6 8.7 10.7 88 1.0 SSW 22 28 12 15 1028.3 - 4.0
28/08:00am 11.9 8.5 10.5 91 0.7 S 19 24 10 13 1028.3 - 4.0
28/07:30am 10.9 7.7 10.0 94 0.5 SSW 17 24 9 13 1028.1 - 4.0
28/07:00am 10.5 6.7 9.1 91 0.7 SSW 19 22 10 12 1027.6 - 3.8
28/06:30am 10.3 6.3 9.1 92 0.6 SSW 20 26 11 14 1027.5 - 3.8
28/06:00am 10.0 6.1 8.6 91 0.7 SSW 19 24 10 13 1027.2 1027.3 3.8
28/05:30am 10.1 6.6 8.9 92 0.6 SSW 17 20 9 11 1026.9 - 3.8
28/05:00am 10.2 6.3 8.6 90 0.8 SSW 19 22 10 12 1026.8 - 3.6
28/04:30am 10.5 6.4 8.8 89 0.8 SSW 20 26 11 14 1026.6 - 3.6
28/04:00am 10.7 6.7 9.0 89 0.8 SSW 20 30 11 16 1026.6 - 3.6
28/03:30am 10.3 7.7 9.5 95 0.4 SSW 13 20 7 11 1026.6 - 3.6
28/03:00am 10.6 7.3 9.5 93 0.6 S 17 24 9 13 1026.7 1026.8 3.6
28/02:30am 11.0 8.1 9.6 91 0.7 S 15 20 8 11 1026.8 - 3.6
28/02:00am 11.1 7.3 9.2 88 1.0 SSW 19 22 10 12 1026.9 - 3.2
28/01:30am 11.1 7.3 9.2 88 1.0 SSW 19 22 10 12 1026.9 - 3.2
28/01:00am 10.6 6.8 9.2 91 0.7 SSW 19 20 10 11 1027.1 - 3.2
28/12:30am 9.6 6.5 8.7 94 0.4 SSW 15 19 8 10 1027.3 - 3.2
28/12:00am 10.1 7.4 9.0 93 0.5 SSW 13 17 7 9 1027.4 1027.5 3.2
 
Date/Time
EST
Tmp

°C
App
Tmp
°C
Dew
Point
°C
Rel
Hum
%
Delta-T

°C
Wind Press
QNH
hPa
Press
MSL
hPa
Rain
since
9 am
mm
Dir
 
Spd
km/h
Gust
km/h
Spd
kts
Gust
kts
27/11:30pm 9.9 7.2 9.1 95 0.4 SSW 13 17 7 9 1027.3 - 3.2
27/11:00pm 9.8 6.9 9.5 98 0.2 SSW 15 19 8 10 1027.6 - 3.2
27/10:30pm 9.4 6.4 9.3 99 0.0 SW 15 17 8 9 1027.6 - 3.2
27/10:00pm 9.6 6.8 8.5 93 0.5 SW 13 15 7 8 1027.5 - 3.2
27/09:30pm 11.0 8.0 9.3 89 0.9 SSW 15 19 8 10 1027.5 - 3.2
27/09:00pm 10.8 8.0 10.0 95 0.4 SSW 15 19 8 10 1027.7 1027.8 3.2
27/08:30pm 10.2 7.6 9.3 94 0.4 SW 13 15 7 8 1027.8 - 3.2
27/08:00pm 10.2 7.2 9.1 93 0.5 SSW 15 17 8 9 1027.9 - 3.2
27/07:30pm 10.2 7.5 9.1 93 0.5 SW 13 15 7 8 1027.7 - 3.2
27/07:00pm 10.3 8.0 9.1 92 0.6 SW 11 13 6 7 1027.6 - 3.2
27/06:30pm 10.4 7.7 8.8 90 0.8 SW 13 15 7 8 1027.3 - 3.2
27/06:00pm 11.7 9.0 9.1 84 1.3 SSW 13 17 7 9 1027.1 1027.2 3.2
27/05:30pm 12.1 9.5 9.3 83 1.4 S 13 17 7 9 1026.8 - 3.2
27/05:00pm 12.8 10.3 9.6 81 1.6 S 13 19 7 10 1026.7 - 3.2
27/04:30pm 12.2 10.4 10.9 92 0.7 SW 11 13 6 7 1026.7 - 3.2
27/04:00pm 12.4 10.1 10.6 89 0.9 SW 13 15 7 8 1026.5 - 3.2
27/03:48pm 12.1 9.2 9.7 85 1.2 SW 15 22 8 12 1026.5 - 3.2
27/03:30pm 11.6 8.7 9.7 88 1.0 S 15 20 8 11 1026.7 - 3.0
27/03:25pm 12.3 9.8 10.9 91 0.7 S 15 22 8 12 1026.8 - 2.0
27/03:17pm 12.6 10.5 11.0 90 0.8 S 13 19 7 10 1026.6 - 1.6
27/03:00pm 12.9 9.9 10.6 86 1.2 S 17 24 9 13 1026.6 1026.7 1.0
27/02:30pm 15.6 11.2 8.8 64 3.5 S 22 32 12 17 1026.2 - 0.8
27/02:00pm 14.9 9.8 9.3 69 2.9 SSE 26 33 14 18 1026.1 - 0.8
27/01:30pm 15.0 10.8 9.6 70 2.8 SSE 22 32 12 17 1026.1 - 0.8
27/01:00pm 16.2 11.2 9.4 64 3.5 SSE 26 35 14 19 1026.2 - 0.8
27/12:00pm 15.0 10.5 10.0 72 2.6 SSE 24 37 13 20 1026.7 1026.8 0.6
27/11:30am 13.9 10.3 10.5 80 1.8 SSE 20 26 11 14 1027.2 - 0.6
27/11:00am 15.3 11.7 9.7 69 2.9 SSE 19 26 10 14 1027.4 - 0.0
27/10:30am 14.9 11.0 8.8 67 3.1 SSE 19 28 10 15 1027.7 - 0.0
27/10:00am 15.2 10.9 8.0 62 3.6 SSE 20 28 11 15 1027.7 - 0.0
27/09:30am 14.9 10.2 7.9 63 3.5 SSE 22 30 12 16 1027.6 - 0.0
27/09:00am 14.6 11.0 10.0 74 2.4 SSE 19 24 10 13 1027.6 1027.7 38.8
27/08:30am 13.3 10.7 9.5 78 1.9 S 13 17 7 9 1027.4 - 38.8
27/08:00am 12.3 10.2 9.7 84 1.3 SSW 11 13 6 7 1027.4 - 38.8
27/07:30am 11.6 9.2 9.9 89 0.9 SSW 13 17 7 9 1027.2 - 38.8
27/07:00am 8.9 6.0 8.0 94 0.4 SSW 13 15 7 8 1026.9 - 38.8
27/06:30am 8.4 5.3 7.3 93 0.5 SSW 13 15 7 8 1026.8 - 38.8
27/06:00am 9.1 6.5 7.7 91 0.7 SSW 11 13 6 7 1026.6 1026.7 38.8
27/05:30am 9.4 6.5 8.2 92 0.6 S 13 15 7 8 1026.4 - 38.8
27/05:00am 9.5 6.6 8.1 91 0.7 S 13 17 7 9 1026.5 - 38.8
27/04:30am 10.0 7.1 8.3 89 0.8 S 13 17 7 9 1026.1 - 38.8
27/04:00am 10.1 7.3 8.7 91 0.7 S 13 17 7 9 1026.2 - 38.8
27/03:30am 10.8 7.8 9.2 90 0.8 S 15 19 8 10 1026.1 - 38.8
27/03:00am 11.2 8.7 9.8 91 0.7 S 13 19 7 10 1026.2 1026.3 38.8
27/02:30am 11.5 8.8 10.4 93 0.6 S 15 20 8 11 1026.3 - 38.8
27/02:00am 11.3 8.3 10.5 95 0.4 S 17 20 9 11 1026.4 - 38.6
27/01:30am 10.8 8.4 10.0 95 0.4 S 13 17 7 9 1026.6 - 38.6
27/01:00am 11.3 9.5 10.7 96 0.3 S 11 13 6 7 1026.8 - 38.6
27/12:30am 11.6 10.3 11.4 99 0.1 S 9 11 5 6 1026.8 - 38.6
27/12:00am 11.7 9.7 11.4 98 0.2 S 13 15 7 8 1026.8 1026.9 38.4
 
Date/Time
EST
Tmp

°C
App
Tmp
°C
Dew
Point
°C
Rel
Hum
%
Delta-T

°C
Wind Press
QNH
hPa
Press
MSL
hPa
Rain
since
9 am
mm
Dir
 
Spd
km/h
Gust
km/h
Spd
kts
Gust
kts
26/11:30pm 11.5 9.4 11.0 97 0.3 S 13 17 7 9 1026.8 - 38.4
26/11:00pm 11.9 9.8 11.1 95 0.4 S 13 17 7 9 1026.9 - 38.4
26/10:30pm 12.2 10.3 11.9 98 0.2 S 13 19 7 10 1026.9 - 38.4
26/10:16pm 12.0 10.9 11.8 99 0.1 S 9 11 5 6 1027.0 - 38.4
26/10:00pm 12.1 11.0 11.9 99 0.1 ESE 9 26 5 14 1027.0 - 38.4
26/09:51pm 11.8 10.6 11.6 99 0.1 SE 9 11 5 6 1027.0 - 37.0
26/09:30pm 11.5 9.4 11.3 99 0.1 S 13 15 7 8 1027.0 - 36.4
26/09:00pm 12.0 10.5 11.8 99 0.1 S 11 13 6 7 1027.0 1027.1 36.4
26/08:30pm 11.9 10.3 11.7 99 0.1 S 11 13 6 7 1026.9 - 36.2
26/08:00pm 11.8 10.2 11.6 99 0.1 S 11 13 6 7 1026.8 - 36.2
26/07:30pm 11.5 9.9 11.5 100 0.0 SSW 11 13 6 7 1026.5 - 36.2
26/07:00pm 11.5 9.5 11.5 100 0.0 SSW 13 15 7 8 1026.2 - 36.2
26/06:30pm 11.9 12.5 11.9 100 0.0 CALM 0 0 0 0 1025.8 - 36.2
26/06:13pm 11.9 11.2 11.9 100 0.0 E 7 13 4 7 1025.8 - 36.2
26/06:00pm 12.0 10.2 12.0 100 0.0 ESE 13 20 7 11 1025.9 1026.0 36.2
26/05:30pm 12.6 12.1 12.6 100 0.0 E 7 13 4 7 1025.6 - 33.2
26/05:26pm 12.7 12.2 12.7 100 0.0 E 7 13 4 7 1025.6 - 33.2
26/05:00pm 12.7 11.5 12.7 100 0.0 SSE 11 17 6 9 1025.3 - 32.8
26/04:30pm 12.6 11.3 12.6 100 0.0 SE 11 15 6 8 1025.2 - 31.2
26/04:00pm 12.6 10.9 12.6 100 0.0 SSW 13 17 7 9 1024.8 - 29.2
26/03:30pm 12.6 11.7 12.6 100 0.0 S 9 11 5 6 1025.0 - 27.2
26/03:00pm 12.4 11.8 12.4 100 0.0 SSW 7 13 4 7 1025.1 - 22.8
26/02:49pm 12.5 10.8 12.5 100 0.0 SSW 13 15 7 8 1024.9 - 22.0
26/02:30pm 12.4 10.3 12.4 100 0.0 SSW 15 20 8 11 1024.9 - 21.0
26/02:00pm 12.3 10.6 12.3 100 0.0 S 13 15 7 8 1025.4 - 16.8
26/01:49pm 12.5 10.8 12.5 100 0.0 S 13 15 7 8 1025.2 - 15.4
26/01:30pm 12.5 10.8 12.5 100 0.0 S 13 17 7 9 1025.3 - 14.2

Latest Capital City Observations: Canberra | Sydney | Melbourne | Brisbane | Adelaide | Perth | Hobart | Darwin

Other Formats:

Comma delimited format used in spreadsheet applications
http://www.bom.gov.au/fwo/IDN60903/IDN60903.94750.axf

JavaScript Object Notation format (JSON) in row-major order
http://www.bom.gov.au/fwo/IDN60903/IDN60903.94750.json